sensor_id;sensor_type;location;lat;lon;timestamp;temperature;humidity
12156;DHT22;6141;49.092;8.516;2023-02-07T00:00:51;4.00;52.20
12156;DHT22;6141;49.092;8.516;2023-02-07T00:03:20;4.00;52.20
12156;DHT22;6141;49.092;8.516;2023-02-07T00:05:48;3.90;52.10
12156;DHT22;6141;49.092;8.516;2023-02-07T00:08:16;3.80;52.60
12156;DHT22;6141;49.092;8.516;2023-02-07T00:10:45;3.90;52.40
12156;DHT22;6141;49.092;8.516;2023-02-07T00:13:13;3.90;52.50
12156;DHT22;6141;49.092;8.516;2023-02-07T00:15:41;3.80;52.70
12156;DHT22;6141;49.092;8.516;2023-02-07T00:18:09;3.70;53.10
12156;DHT22;6141;49.092;8.516;2023-02-07T00:20:38;3.70;53.30
12156;DHT22;6141;49.092;8.516;2023-02-07T00:23:06;3.70;53.30
12156;DHT22;6141;49.092;8.516;2023-02-07T00:25:34;3.70;53.50
12156;DHT22;6141;49.092;8.516;2023-02-07T00:28:04;3.60;53.70
12156;DHT22;6141;49.092;8.516;2023-02-07T00:30:32;3.40;55.10
12156;DHT22;6141;49.092;8.516;2023-02-07T00:33:02;3.30;55.70
12156;DHT22;6141;49.092;8.516;2023-02-07T00:35:30;3.20;56.30
12156;DHT22;6141;49.092;8.516;2023-02-07T00:37:58;3.30;56.10
12156;DHT22;6141;49.092;8.516;2023-02-07T00:40:26;3.20;55.70
12156;DHT22;6141;49.092;8.516;2023-02-07T00:42:55;3.20;55.70
12156;DHT22;6141;49.092;8.516;2023-02-07T00:45:25;3.20;55.80
12156;DHT22;6141;49.092;8.516;2023-02-07T00:47:52;3.40;55.40
12156;DHT22;6141;49.092;8.516;2023-02-07T00:50:21;3.50;54.70
12156;DHT22;6141;49.092;8.516;2023-02-07T00:52:49;3.40;53.90
12156;DHT22;6141;49.092;8.516;2023-02-07T00:55:17;3.40;54.00
12156;DHT22;6141;49.092;8.516;2023-02-07T00:57:46;3.40;53.10
12156;DHT22;6141;49.092;8.516;2023-02-07T01:00:14;3.30;52.50
12156;DHT22;6141;49.092;8.516;2023-02-07T01:02:43;3.20;52.40
12156;DHT22;6141;49.092;8.516;2023-02-07T01:05:11;3.20;51.40
12156;DHT22;6141;49.092;8.516;2023-02-07T01:07:39;3.10;51.30
12156;DHT22;6141;49.092;8.516;2023-02-07T01:10:08;3.10;50.60
12156;DHT22;6141;49.092;8.516;2023-02-07T01:12:39;3.00;50.50
12156;DHT22;6141;49.092;8.516;2023-02-07T01:15:08;3.00;49.20
12156;DHT22;6141;49.092;8.516;2023-02-07T01:17:36;2.90;48.80
12156;DHT22;6141;49.092;8.516;2023-02-07T01:20:06;2.80;48.60
12156;DHT22;6141;49.092;8.516;2023-02-07T01:22:35;2.70;48.10
12156;DHT22;6141;49.092;8.516;2023-02-07T01:25:03;2.80;48.10
12156;DHT22;6141;49.092;8.516;2023-02-07T01:27:32;2.80;46.30
12156;DHT22;6141;49.092;8.516;2023-02-07T01:30:00;2.70;46.60
12156;DHT22;6141;49.092;8.516;2023-02-07T01:32:30;2.60;47.30
12156;DHT22;6141;49.092;8.516;2023-02-07T01:34:58;2.60;47.20
12156;DHT22;6141;49.092;8.516;2023-02-07T01:37:27;2.70;46.70
12156;DHT22;6141;49.092;8.516;2023-02-07T01:39:55;2.80;46.60
12156;DHT22;6141;49.092;8.516;2023-02-07T01:42:26;2.80;46.50
12156;DHT22;6141;49.092;8.516;2023-02-07T01:44:57;2.80;45.90
12156;DHT22;6141;49.092;8.516;2023-02-07T01:47:26;2.80;45.80
12156;DHT22;6141;49.092;8.516;2023-02-07T01:49:55;2.80;46.10
12156;DHT22;6141;49.092;8.516;2023-02-07T01:52:25;2.70;46.10
12156;DHT22;6141;49.092;8.516;2023-02-07T01:54:56;2.70;46.00
12156;DHT22;6141;49.092;8.516;2023-02-07T01:57:25;2.80;45.70
12156;DHT22;6141;49.092;8.516;2023-02-07T01:59:54;2.70;46.10
12156;DHT22;6141;49.092;8.516;2023-02-07T02:02:23;2.80;46.20
12156;DHT22;6141;49.092;8.516;2023-02-07T02:04:54;2.70;45.90
12156;DHT22;6141;49.092;8.516;2023-02-07T02:07:23;2.70;46.60
12156;DHT22;6141;49.092;8.516;2023-02-07T02:09:52;2.70;46.40
12156;DHT22;6141;49.092;8.516;2023-02-07T02:15:15;2.60;46.10
12156;DHT22;6141;49.092;8.516;2023-02-07T02:17:54;2.50;46.40
12156;DHT22;6141;49.092;8.516;2023-02-07T02:23:14;2.50;46.90
12156;DHT22;6141;49.092;8.516;2023-02-07T02:25:47;2.60;46.40
12156;DHT22;6141;49.092;8.516;2023-02-07T02:33:51;2.70;46.60
12156;DHT22;6141;49.092;8.516;2023-02-07T02:36:24;2.90;46.10
12156;DHT22;6141;49.092;8.516;2023-02-07T02:38:56;2.90;46.00
12156;DHT22;6141;49.092;8.516;2023-02-07T02:41:28;2.90;45.20
12156;DHT22;6141;49.092;8.516;2023-02-07T02:44:00;2.90;45.70
12156;DHT22;6141;49.092;8.516;2023-02-07T02:46:31;2.90;45.60
12156;DHT22;6141;49.092;8.516;2023-02-07T02:49:03;2.90;45.10
12156;DHT22;6141;49.092;8.516;2023-02-07T02:51:32;2.90;45.50
12156;DHT22;6141;49.092;8.516;2023-02-07T02:54:00;2.90;45.10
12156;DHT22;6141;49.092;8.516;2023-02-07T02:56:42;2.90;45.20
12156;DHT22;6141;49.092;8.516;2023-02-07T03:02:01;2.80;45.70
12156;DHT22;6141;49.092;8.516;2023-02-07T03:04:43;2.70;45.50
12156;DHT22;6141;49.092;8.516;2023-02-07T03:07:20;2.70;45.70
12156;DHT22;6141;49.092;8.516;2023-02-07T03:09:53;2.70;45.80
12156;DHT22;6141;49.092;8.516;2023-02-07T03:12:24;2.60;46.10
12156;DHT22;6141;49.092;8.516;2023-02-07T03:14:55;2.70;45.50
12156;DHT22;6141;49.092;8.516;2023-02-07T03:17:27;2.60;45.70
12156;DHT22;6141;49.092;8.516;2023-02-07T03:20:09;2.60;45.70
12156;DHT22;6141;49.092;8.516;2023-02-07T03:22:41;2.60;45.90
12156;DHT22;6141;49.092;8.516;2023-02-07T03:25:10;2.60;45.50
12156;DHT22;6141;49.092;8.516;2023-02-07T03:27:42;2.60;45.40
12156;DHT22;6141;49.092;8.516;2023-02-07T03:30:12;2.60;45.80
12156;DHT22;6141;49.092;8.516;2023-02-07T03:32:43;2.60;45.50
12156;DHT22;6141;49.092;8.516;2023-02-07T03:35:14;2.50;45.70
12156;DHT22;6141;49.092;8.516;2023-02-07T03:37:45;2.60;46.00
12156;DHT22;6141;49.092;8.516;2023-02-07T03:40:15;2.60;46.10
12156;DHT22;6141;49.092;8.516;2023-02-07T03:42:44;2.50;45.60
12156;DHT22;6141;49.092;8.516;2023-02-07T03:45:14;2.30;46.00
12156;DHT22;6141;49.092;8.516;2023-02-07T03:47:44;2.40;46.50
12156;DHT22;6141;49.092;8.516;2023-02-07T03:50:14;2.40;46.30
12156;DHT22;6141;49.092;8.516;2023-02-07T03:52:42;2.50;46.00
12156;DHT22;6141;49.092;8.516;2023-02-07T03:55:10;2.50;45.80
12156;DHT22;6141;49.092;8.516;2023-02-07T03:57:39;2.40;46.10
12156;DHT22;6141;49.092;8.516;2023-02-07T04:00:08;2.40;46.10
12156;DHT22;6141;49.092;8.516;2023-02-07T04:02:39;2.30;46.40
12156;DHT22;6141;49.092;8.516;2023-02-07T04:05:07;2.30;46.30
12156;DHT22;6141;49.092;8.516;2023-02-07T04:07:37;2.20;46.40
12156;DHT22;6141;49.092;8.516;2023-02-07T04:10:05;2.20;46.70
12156;DHT22;6141;49.092;8.516;2023-02-07T04:12:33;2.20;46.80
12156;DHT22;6141;49.092;8.516;2023-02-07T04:15:02;2.20;46.60
12156;DHT22;6141;49.092;8.516;2023-02-07T04:17:30;2.20;46.40
12156;DHT22;6141;49.092;8.516;2023-02-07T04:19:58;2.20;46.60
12156;DHT22;6141;49.092;8.516;2023-02-07T04:22:27;2.30;46.20
12156;DHT22;6141;49.092;8.516;2023-02-07T04:24:56;2.40;46.00
12156;DHT22;6141;49.092;8.516;2023-02-07T04:27:25;2.40;45.30
12156;DHT22;6141;49.092;8.516;2023-02-07T04:29:53;2.40;45.30
12156;DHT22;6141;49.092;8.516;2023-02-07T04:32:22;2.50;45.10
12156;DHT22;6141;49.092;8.516;2023-02-07T04:34:50;2.50;45.00
12156;DHT22;6141;49.092;8.516;2023-02-07T04:37:18;2.50;44.80
12156;DHT22;6141;49.092;8.516;2023-02-07T04:39:46;2.50;44.80
12156;DHT22;6141;49.092;8.516;2023-02-07T04:42:15;2.50;44.80
12156;DHT22;6141;49.092;8.516;2023-02-07T04:44:44;2.40;44.60
12156;DHT22;6141;49.092;8.516;2023-02-07T04:47:12;2.40;45.10
12156;DHT22;6141;49.092;8.516;2023-02-07T04:49:40;2.40;45.00
12156;DHT22;6141;49.092;8.516;2023-02-07T04:52:08;2.40;45.10
12156;DHT22;6141;49.092;8.516;2023-02-07T04:54:36;2.50;44.70
12156;DHT22;6141;49.092;8.516;2023-02-07T04:57:04;2.30;44.60
12156;DHT22;6141;49.092;8.516;2023-02-07T04:59:34;2.50;44.80
12156;DHT22;6141;49.092;8.516;2023-02-07T05:02:02;2.50;44.60
12156;DHT22;6141;49.092;8.516;2023-02-07T05:04:30;2.60;44.60
12156;DHT22;6141;49.092;8.516;2023-02-07T05:06:58;2.60;44.30
12156;DHT22;6141;49.092;8.516;2023-02-07T05:09:26;2.60;43.90
12156;DHT22;6141;49.092;8.516;2023-02-07T05:11:54;2.50;44.00
12156;DHT22;6141;49.092;8.516;2023-02-07T05:14:23;2.40;43.80
12156;DHT22;6141;49.092;8.516;2023-02-07T05:16:52;2.40;44.20
12156;DHT22;6141;49.092;8.516;2023-02-07T05:19:20;2.40;44.40
12156;DHT22;6141;49.092;8.516;2023-02-07T05:21:48;2.40;44.10
12156;DHT22;6141;49.092;8.516;2023-02-07T05:24:16;2.40;43.80
12156;DHT22;6141;49.092;8.516;2023-02-07T05:26:45;2.40;43.20
12156;DHT22;6141;49.092;8.516;2023-02-07T05:29:13;2.40;43.60
12156;DHT22;6141;49.092;8.516;2023-02-07T05:31:41;2.40;43.50
12156;DHT22;6141;49.092;8.516;2023-02-07T05:34:28;2.40;43.60
12156;DHT22;6141;49.092;8.516;2023-02-07T05:36:56;2.30;43.70
12156;DHT22;6141;49.092;8.516;2023-02-07T05:39:24;2.40;43.30
12156;DHT22;6141;49.092;8.516;2023-02-07T05:41:53;2.40;43.30
12156;DHT22;6141;49.092;8.516;2023-02-07T05:44:21;2.30;43.30
12156;DHT22;6141;49.092;8.516;2023-02-07T05:46:49;2.40;43.90
12156;DHT22;6141;49.092;8.516;2023-02-07T05:49:18;2.30;43.60
12156;DHT22;6141;49.092;8.516;2023-02-07T05:51:47;2.30;44.60
12156;DHT22;6141;49.092;8.516;2023-02-07T05:54:15;2.20;44.00
12156;DHT22;6141;49.092;8.516;2023-02-07T05:56:44;2.20;44.20
12156;DHT22;6141;49.092;8.516;2023-02-07T05:59:12;2.20;44.40
12156;DHT22;6141;49.092;8.516;2023-02-07T06:01:40;2.20;44.30
12156;DHT22;6141;49.092;8.516;2023-02-07T06:04:08;2.10;44.00
12156;DHT22;6141;49.092;8.516;2023-02-07T06:06:36;2.10;44.40
12156;DHT22;6141;49.092;8.516;2023-02-07T06:09:05;2.10;45.10
12156;DHT22;6141;49.092;8.516;2023-02-07T06:11:34;2.00;44.40
12156;DHT22;6141;49.092;8.516;2023-02-07T06:14:02;2.00;44.80
12156;DHT22;6141;49.092;8.516;2023-02-07T06:16:30;2.00;45.10
12156;DHT22;6141;49.092;8.516;2023-02-07T06:18:58;1.90;44.80
12156;DHT22;6141;49.092;8.516;2023-02-07T06:21:26;2.00;44.70
12156;DHT22;6141;49.092;8.516;2023-02-07T06:24:13;2.00;44.70
12156;DHT22;6141;49.092;8.516;2023-02-07T06:26:41;2.00;45.00
12156;DHT22;6141;49.092;8.516;2023-02-07T06:29:09;1.90;44.90
12156;DHT22;6141;49.092;8.516;2023-02-07T06:31:37;1.90;44.80
12156;DHT22;6141;49.092;8.516;2023-02-07T06:34:05;1.90;44.80
12156;DHT22;6141;49.092;8.516;2023-02-07T06:36:34;1.90;44.80
12156;DHT22;6141;49.092;8.516;2023-02-07T06:39:02;1.90;45.20
12156;DHT22;6141;49.092;8.516;2023-02-07T06:41:31;1.80;44.80
12156;DHT22;6141;49.092;8.516;2023-02-07T06:43:59;1.80;45.00
12156;DHT22;6141;49.092;8.516;2023-02-07T06:46:27;1.80;44.80
12156;DHT22;6141;49.092;8.516;2023-02-07T06:48:56;1.80;45.00
12156;DHT22;6141;49.092;8.516;2023-02-07T06:51:24;1.80;44.90
12156;DHT22;6141;49.092;8.516;2023-02-07T06:53:52;1.80;44.10
12156;DHT22;6141;49.092;8.516;2023-02-07T06:56:20;1.70;44.30
12156;DHT22;6141;49.092;8.516;2023-02-07T06:58:49;1.80;44.80
12156;DHT22;6141;49.092;8.516;2023-02-07T07:01:18;1.80;44.10
12156;DHT22;6141;49.092;8.516;2023-02-07T07:03:48;1.80;44.10
12156;DHT22;6141;49.092;8.516;2023-02-07T07:06:17;1.70;44.60
12156;DHT22;6141;49.092;8.516;2023-02-07T07:08:45;1.70;44.60
12156;DHT22;6141;49.092;8.516;2023-02-07T07:11:13;1.60;44.80
12156;DHT22;6141;49.092;8.516;2023-02-07T07:13:42;1.60;44.70
12156;DHT22;6141;49.092;8.516;2023-02-07T07:16:11;1.50;45.00
12156;DHT22;6141;49.092;8.516;2023-02-07T07:18:39;1.50;45.30
12156;DHT22;6141;49.092;8.516;2023-02-07T07:21:08;1.40;45.50
12156;DHT22;6141;49.092;8.516;2023-02-07T07:23:36;1.40;45.90
12156;DHT22;6141;49.092;8.516;2023-02-07T07:26:04;1.40;45.90
12156;DHT22;6141;49.092;8.516;2023-02-07T07:28:33;1.40;46.30
12156;DHT22;6141;49.092;8.516;2023-02-07T07:31:01;1.40;46.10
12156;DHT22;6141;49.092;8.516;2023-02-07T07:33:31;1.40;46.10
12156;DHT22;6141;49.092;8.516;2023-02-07T07:36:00;1.40;45.90
12156;DHT22;6141;49.092;8.516;2023-02-07T07:38:30;1.40;46.20
12156;DHT22;6141;49.092;8.516;2023-02-07T07:40:58;1.40;46.30
12156;DHT22;6141;49.092;8.516;2023-02-07T07:43:26;1.40;46.00
12156;DHT22;6141;49.092;8.516;2023-02-07T07:45:55;1.40;46.00
12156;DHT22;6141;49.092;8.516;2023-02-07T07:48:25;1.40;46.10
12156;DHT22;6141;49.092;8.516;2023-02-07T07:50:55;1.30;46.30
12156;DHT22;6141;49.092;8.516;2023-02-07T07:53:23;1.20;46.80
12156;DHT22;6141;49.092;8.516;2023-02-07T07:55:51;1.20;47.30
12156;DHT22;6141;49.092;8.516;2023-02-07T07:58:20;1.20;46.70
12156;DHT22;6141;49.092;8.516;2023-02-07T08:00:48;1.20;47.10
12156;DHT22;6141;49.092;8.516;2023-02-07T08:03:18;1.20;46.80
12156;DHT22;6141;49.092;8.516;2023-02-07T08:05:46;1.20;46.90
12156;DHT22;6141;49.092;8.516;2023-02-07T08:08:15;1.20;46.60
12156;DHT22;6141;49.092;8.516;2023-02-07T08:10:44;1.20;46.40
12156;DHT22;6141;49.092;8.516;2023-02-07T08:13:12;1.10;46.70
12156;DHT22;6141;49.092;8.516;2023-02-07T08:15:42;1.20;47.00
12156;DHT22;6141;49.092;8.516;2023-02-07T08:18:11;1.30;46.80
12156;DHT22;6141;49.092;8.516;2023-02-07T08:20:39;1.30;45.40
12156;DHT22;6141;49.092;8.516;2023-02-07T08:23:07;1.40;45.70
12156;DHT22;6141;49.092;8.516;2023-02-07T08:25:37;1.50;45.60
12156;DHT22;6141;49.092;8.516;2023-02-07T08:28:05;1.60;45.60
12156;DHT22;6141;49.092;8.516;2023-02-07T08:30:33;1.70;45.20
12156;DHT22;6141;49.092;8.516;2023-02-07T08:33:02;1.80;44.50
12156;DHT22;6141;49.092;8.516;2023-02-07T08:35:30;1.90;42.90
12156;DHT22;6141;49.092;8.516;2023-02-07T08:37:58;2.00;42.60
12156;DHT22;6141;49.092;8.516;2023-02-07T08:40:26;2.10;42.70
12156;DHT22;6141;49.092;8.516;2023-02-07T08:42:56;2.20;42.10
12156;DHT22;6141;49.092;8.516;2023-02-07T08:45:25;2.40;41.50
12156;DHT22;6141;49.092;8.516;2023-02-07T08:47:54;2.70;40.30
12156;DHT22;6141;49.092;8.516;2023-02-07T08:50:22;2.80;38.90
12156;DHT22;6141;49.092;8.516;2023-02-07T08:52:50;2.90;39.00
12156;DHT22;6141;49.092;8.516;2023-02-07T08:55:18;3.00;39.10
12156;DHT22;6141;49.092;8.516;2023-02-07T08:57:46;3.20;37.50
12156;DHT22;6141;49.092;8.516;2023-02-07T09:00:16;3.30;36.50
12156;DHT22;6141;49.092;8.516;2023-02-07T09:02:44;3.40;36.50
12156;DHT22;6141;49.092;8.516;2023-02-07T09:05:13;3.60;35.20
12156;DHT22;6141;49.092;8.516;2023-02-07T09:07:41;3.60;34.40
12156;DHT22;6141;49.092;8.516;2023-02-07T09:10:10;3.50;35.20
12156;DHT22;6141;49.092;8.516;2023-02-07T09:12:38;3.60;34.40
12156;DHT22;6141;49.092;8.516;2023-02-07T09:15:06;3.60;34.70
12156;DHT22;6141;49.092;8.516;2023-02-07T09:17:36;3.60;33.50
12156;DHT22;6141;49.092;8.516;2023-02-07T09:20:04;3.60;35.20
12156;DHT22;6141;49.092;8.516;2023-02-07T09:22:33;3.60;33.50
12156;DHT22;6141;49.092;8.516;2023-02-07T09:25:22;3.60;35.00
12156;DHT22;6141;49.092;8.516;2023-02-07T09:27:50;3.70;33.50
12156;DHT22;6141;49.092;8.516;2023-02-07T09:30:18;3.80;33.60
12156;DHT22;6141;49.092;8.516;2023-02-07T09:32:47;3.90;33.30
12156;DHT22;6141;49.092;8.516;2023-02-07T09:35:16;3.90;33.70
12156;DHT22;6141;49.092;8.516;2023-02-07T09:37:44;4.00;32.50
12156;DHT22;6141;49.092;8.516;2023-02-07T09:40:16;4.00;32.10
12156;DHT22;6141;49.092;8.516;2023-02-07T09:42:47;4.00;33.10
12156;DHT22;6141;49.092;8.516;2023-02-07T09:45:18;4.10;32.90
12156;DHT22;6141;49.092;8.516;2023-02-07T09:47:49;4.10;31.80
12156;DHT22;6141;49.092;8.516;2023-02-07T09:50:19;4.30;33.00
12156;DHT22;6141;49.092;8.516;2023-02-07T09:52:48;4.60;32.20
12156;DHT22;6141;49.092;8.516;2023-02-07T09:55:17;4.60;31.30
12156;DHT22;6141;49.092;8.516;2023-02-07T09:57:47;4.60;31.30
12156;DHT22;6141;49.092;8.516;2023-02-07T10:00:20;4.80;32.00
12156;DHT22;6141;49.092;8.516;2023-02-07T10:02:53;5.00;30.40
12156;DHT22;6141;49.092;8.516;2023-02-07T10:05:25;5.20;29.50
12156;DHT22;6141;49.092;8.516;2023-02-07T10:07:54;5.10;30.00
12156;DHT22;6141;49.092;8.516;2023-02-07T10:10:25;5.20;29.10
12156;DHT22;6141;49.092;8.516;2023-02-07T10:13:05;5.30;29.90
12156;DHT22;6141;49.092;8.516;2023-02-07T10:15:40;5.40;30.00
12156;DHT22;6141;49.092;8.516;2023-02-07T10:18:18;5.60;29.80
12156;DHT22;6141;49.092;8.516;2023-02-07T10:20:53;5.70;29.40
12156;DHT22;6141;49.092;8.516;2023-02-07T10:23:30;5.80;28.40
12156;DHT22;6141;49.092;8.516;2023-02-07T10:26:03;5.70;28.40
12156;DHT22;6141;49.092;8.516;2023-02-07T10:28:57;5.60;28.80
12156;DHT22;6141;49.092;8.516;2023-02-07T10:31:30;5.60;29.30
12156;DHT22;6141;49.092;8.516;2023-02-07T10:34:00;5.70;29.30
12156;DHT22;6141;49.092;8.516;2023-02-07T10:36:30;5.70;29.30
12156;DHT22;6141;49.092;8.516;2023-02-07T10:39:02;5.70;29.30
12156;DHT22;6141;49.092;8.516;2023-02-07T10:41:36;5.90;28.50
12156;DHT22;6141;49.092;8.516;2023-02-07T10:44:05;5.90;29.50
12156;DHT22;6141;49.092;8.516;2023-02-07T10:46:33;6.00;29.00
12156;DHT22;6141;49.092;8.516;2023-02-07T10:49:03;5.90;28.40
12156;DHT22;6141;49.092;8.516;2023-02-07T10:51:32;6.00;28.70
12156;DHT22;6141;49.092;8.516;2023-02-07T10:54:04;6.00;28.60
12156;DHT22;6141;49.092;8.516;2023-02-07T10:56:33;5.90;29.50
12156;DHT22;6141;49.092;8.516;2023-02-07T10:59:22;5.90;28.60
12156;DHT22;6141;49.092;8.516;2023-02-07T11:01:53;5.90;29.50
12156;DHT22;6141;49.092;8.516;2023-02-07T11:04:29;6.00;29.50
12156;DHT22;6141;49.092;8.516;2023-02-07T11:07:01;6.10;28.00
12156;DHT22;6141;49.092;8.516;2023-02-07T11:09:29;6.20;28.30
12156;DHT22;6141;49.092;8.516;2023-02-07T11:12:11;6.20;28.60
12156;DHT22;6141;49.092;8.516;2023-02-07T11:14:42;6.30;29.50
12156;DHT22;6141;49.092;8.516;2023-02-07T11:17:25;6.50;29.40
12156;DHT22;6141;49.092;8.516;2023-02-07T11:19:56;6.40;28.40
12156;DHT22;6141;49.092;8.516;2023-02-07T11:22:29;6.50;28.80
12156;DHT22;6141;49.092;8.516;2023-02-07T11:25:00;6.60;28.90
12156;DHT22;6141;49.092;8.516;2023-02-07T11:27:29;6.80;28.10
12156;DHT22;6141;49.092;8.516;2023-02-07T11:30:03;6.70;27.60
12156;DHT22;6141;49.092;8.516;2023-02-07T11:32:33;6.80;27.20
12156;DHT22;6141;49.092;8.516;2023-02-07T11:35:04;6.60;27.70
12156;DHT22;6141;49.092;8.516;2023-02-07T11:37:35;6.60;27.70
12156;DHT22;6141;49.092;8.516;2023-02-07T11:40:21;6.70;27.20
12156;DHT22;6141;49.092;8.516;2023-02-07T11:42:55;6.80;29.10
12156;DHT22;6141;49.092;8.516;2023-02-07T11:45:24;6.90;28.30
12156;DHT22;6141;49.092;8.516;2023-02-07T11:47:53;7.00;27.50
12156;DHT22;6141;49.092;8.516;2023-02-07T11:50:24;7.00;26.00
12156;DHT22;6141;49.092;8.516;2023-02-07T11:52:56;7.10;28.90
12156;DHT22;6141;49.092;8.516;2023-02-07T11:55:25;7.10;28.50
12156;DHT22;6141;49.092;8.516;2023-02-07T11:57:54;7.30;27.60
12156;DHT22;6141;49.092;8.516;2023-02-07T12:00:24;7.30;27.60
12156;DHT22;6141;49.092;8.516;2023-02-07T12:02:58;7.30;27.60
12156;DHT22;6141;49.092;8.516;2023-02-07T12:05:29;7.20;26.50
12156;DHT22;6141;49.092;8.516;2023-02-07T12:07:59;6.90;26.40
12156;DHT22;6141;49.092;8.516;2023-02-07T12:10:29;6.90;27.80
12156;DHT22;6141;49.092;8.516;2023-02-07T12:12:59;7.10;27.30
12156;DHT22;6141;49.092;8.516;2023-02-07T12:15:31;7.10;28.40
12156;DHT22;6141;49.092;8.516;2023-02-07T12:18:04;7.30;27.60
12156;DHT22;6141;49.092;8.516;2023-02-07T12:20:35;7.50;27.60
12156;DHT22;6141;49.092;8.516;2023-02-07T12:23:05;7.70;27.30
12156;DHT22;6141;49.092;8.516;2023-02-07T12:25:56;7.80;26.70
12156;DHT22;6141;49.092;8.516;2023-02-07T12:28:27;7.80;26.50
12156;DHT22;6141;49.092;8.516;2023-02-07T12:30:57;7.80;26.80
12156;DHT22;6141;49.092;8.516;2023-02-07T12:33:33;7.80;25.90
12156;DHT22;6141;49.092;8.516;2023-02-07T12:36:07;7.90;25.90
12156;DHT22;6141;49.092;8.516;2023-02-07T12:38:40;7.80;25.80
12156;DHT22;6141;49.092;8.516;2023-02-07T12:41:09;8.00;26.90
12156;DHT22;6141;49.092;8.516;2023-02-07T12:43:42;8.10;24.90
12156;DHT22;6141;49.092;8.516;2023-02-07T12:46:17;8.20;24.70
12156;DHT22;6141;49.092;8.516;2023-02-07T12:48:52;8.30;24.20
12156;DHT22;6141;49.092;8.516;2023-02-07T12:51:25;8.30;24.70
12156;DHT22;6141;49.092;8.516;2023-02-07T12:54:01;8.40;24.60
12156;DHT22;6141;49.092;8.516;2023-02-07T12:56:36;8.60;25.60
12156;DHT22;6141;49.092;8.516;2023-02-07T12:59:13;8.70;25.20
12156;DHT22;6141;49.092;8.516;2023-02-07T13:01:43;9.00;23.60
12156;DHT22;6141;49.092;8.516;2023-02-07T13:04:20;9.10;24.30
12156;DHT22;6141;49.092;8.516;2023-02-07T13:06:56;9.20;23.60
12156;DHT22;6141;49.092;8.516;2023-02-07T13:09:27;9.20;24.20
12156;DHT22;6141;49.092;8.516;2023-02-07T13:11:58;9.20;23.70
12156;DHT22;6141;49.092;8.516;2023-02-07T13:14:30;9.20;23.10
12156;DHT22;6141;49.092;8.516;2023-02-07T13:17:11;9.00;24.00
12156;DHT22;6141;49.092;8.516;2023-02-07T13:19:42;8.90;23.00
12156;DHT22;6141;49.092;8.516;2023-02-07T13:22:16;8.90;23.70
12156;DHT22;6141;49.092;8.516;2023-02-07T13:24:45;8.90;23.60
12156;DHT22;6141;49.092;8.516;2023-02-07T13:27:15;9.00;22.70
12156;DHT22;6141;49.092;8.516;2023-02-07T13:29:44;9.10;22.80
12156;DHT22;6141;49.092;8.516;2023-02-07T13:32:13;9.10;21.70
12156;DHT22;6141;49.092;8.516;2023-02-07T13:34:46;9.00;22.50
12156;DHT22;6141;49.092;8.516;2023-02-07T13:37:16;9.10;23.60
12156;DHT22;6141;49.092;8.516;2023-02-07T13:39:46;9.20;22.50
12156;DHT22;6141;49.092;8.516;2023-02-07T13:42:20;9.30;21.90
12156;DHT22;6141;49.092;8.516;2023-02-07T13:44:52;9.10;23.00
12156;DHT22;6141;49.092;8.516;2023-02-07T13:47:35;9.10;22.10
12156;DHT22;6141;49.092;8.516;2023-02-07T13:50:10;9.20;21.80
12156;DHT22;6141;49.092;8.516;2023-02-07T13:52:47;9.10;21.70
12156;DHT22;6141;49.092;8.516;2023-02-07T13:55:21;9.10;21.70
12156;DHT22;6141;49.092;8.516;2023-02-07T13:57:51;9.00;22.50
12156;DHT22;6141;49.092;8.516;2023-02-07T14:03:22;9.20;22.00
12156;DHT22;6141;49.092;8.516;2023-02-07T14:06:10;9.30;21.10
12156;DHT22;6141;49.092;8.516;2023-02-07T14:08:42;9.40;20.80
12156;DHT22;6141;49.092;8.516;2023-02-07T14:11:20;9.50;19.80
12156;DHT22;6141;49.092;8.516;2023-02-07T14:14:01;9.50;21.50
12156;DHT22;6141;49.092;8.516;2023-02-07T14:16:47;9.60;20.30
12156;DHT22;6141;49.092;8.516;2023-02-07T14:19:45;9.70;19.70
12156;DHT22;6141;49.092;8.516;2023-02-07T14:22:12;9.60;20.50
12156;DHT22;6141;49.092;8.516;2023-02-07T14:24:48;9.40;21.00
12156;DHT22;6141;49.092;8.516;2023-02-07T14:27:27;9.50;20.20
12156;DHT22;6141;49.092;8.516;2023-02-07T14:35:36;9.50;20.10
12156;DHT22;6141;49.092;8.516;2023-02-07T14:38:08;9.50;19.80
12156;DHT22;6141;49.092;8.516;2023-02-07T14:40:53;9.60;20.00
12156;DHT22;6141;49.092;8.516;2023-02-07T14:43:41;9.60;20.90
12156;DHT22;6141;49.092;8.516;2023-02-07T14:46:10;9.50;19.90
12156;DHT22;6141;49.092;8.516;2023-02-07T14:48:46;9.50;20.00
12156;DHT22;6141;49.092;8.516;2023-02-07T14:51:16;9.50;19.80
12156;DHT22;6141;49.092;8.516;2023-02-07T14:53:45;9.50;19.30
12156;DHT22;6141;49.092;8.516;2023-02-07T14:56:24;9.50;19.60
12156;DHT22;6141;49.092;8.516;2023-02-07T14:58:53;9.50;19.30
12156;DHT22;6141;49.092;8.516;2023-02-07T15:01:22;9.60;19.30
12156;DHT22;6141;49.092;8.516;2023-02-07T15:04:00;9.50;19.10
12156;DHT22;6141;49.092;8.516;2023-02-07T15:06:34;9.60;19.00
12156;DHT22;6141;49.092;8.516;2023-02-07T15:09:03;9.40;19.00
12156;DHT22;6141;49.092;8.516;2023-02-07T15:11:36;9.50;19.30
12156;DHT22;6141;49.092;8.516;2023-02-07T15:14:04;9.40;18.30
12156;DHT22;6141;49.092;8.516;2023-02-07T15:16:33;9.30;18.90
12156;DHT22;6141;49.092;8.516;2023-02-07T15:19:06;9.00;18.70
12156;DHT22;6141;49.092;8.516;2023-02-07T15:21:36;8.80;18.40
12156;DHT22;6141;49.092;8.516;2023-02-07T15:24:05;8.70;19.40
12156;DHT22;6141;49.092;8.516;2023-02-07T15:26:34;8.60;19.50
12156;DHT22;6141;49.092;8.516;2023-02-07T15:29:04;8.50;19.70
12156;DHT22;6141;49.092;8.516;2023-02-07T15:31:36;8.70;19.30
12156;DHT22;6141;49.092;8.516;2023-02-07T15:34:05;8.60;18.80
12156;DHT22;6141;49.092;8.516;2023-02-07T15:36:40;8.60;18.70
12156;DHT22;6141;49.092;8.516;2023-02-07T15:39:12;8.80;19.30
12156;DHT22;6141;49.092;8.516;2023-02-07T15:41:40;8.90;17.90
12156;DHT22;6141;49.092;8.516;2023-02-07T15:44:19;9.00;18.20
12156;DHT22;6141;49.092;8.516;2023-02-07T15:46:48;9.00;19.10
12156;DHT22;6141;49.092;8.516;2023-02-07T15:49:27;8.70;16.70
12156;DHT22;6141;49.092;8.516;2023-02-07T15:51:57;8.30;18.50
12156;DHT22;6141;49.092;8.516;2023-02-07T15:54:27;8.40;18.40
12156;DHT22;6141;49.092;8.516;2023-02-07T15:56:56;8.60;18.80
12156;DHT22;6141;49.092;8.516;2023-02-07T15:59:27;8.40;18.40
12156;DHT22;6141;49.092;8.516;2023-02-07T16:01:58;8.30;18.30
12156;DHT22;6141;49.092;8.516;2023-02-07T16:04:28;8.30;18.70
12156;DHT22;6141;49.092;8.516;2023-02-07T16:06:57;8.40;18.80
12156;DHT22;6141;49.092;8.516;2023-02-07T16:09:36;8.30;18.40
12156;DHT22;6141;49.092;8.516;2023-02-07T16:12:21;8.40;19.00
12156;DHT22;6141;49.092;8.516;2023-02-07T16:14:51;8.30;17.70
12156;DHT22;6141;49.092;8.516;2023-02-07T16:17:20;8.10;18.10
12156;DHT22;6141;49.092;8.516;2023-02-07T16:19:49;8.10;18.20
12156;DHT22;6141;49.092;8.516;2023-02-07T16:22:18;7.80;18.50
12156;DHT22;6141;49.092;8.516;2023-02-07T16:24:47;7.80;18.90
12156;DHT22;6141;49.092;8.516;2023-02-07T16:27:16;7.80;19.20
12156;DHT22;6141;49.092;8.516;2023-02-07T16:29:45;7.80;19.50
12156;DHT22;6141;49.092;8.516;2023-02-07T16:32:14;7.90;19.60
12156;DHT22;6141;49.092;8.516;2023-02-07T16:34:43;7.90;19.20
12156;DHT22;6141;49.092;8.516;2023-02-07T16:37:25;7.80;19.50
12156;DHT22;6141;49.092;8.516;2023-02-07T16:39:53;7.80;19.50
12156;DHT22;6141;49.092;8.516;2023-02-07T16:42:22;7.60;20.60
12156;DHT22;6141;49.092;8.516;2023-02-07T16:44:50;7.60;20.10
12156;DHT22;6141;49.092;8.516;2023-02-07T16:47:19;7.60;19.80